Latest Coastal Weather Observations for South Johnstone

IDQ60701

Issued at 2:12 pm EST Tuesday 26 May 2020 (issued every 10 minutes, with the page automatically refreshed every 10 minutes)

About coastal observations | Map of coastal stations | Coastal observations for QLD | Marine services | Other Formats
Station Details ID: 032037 Name: SOUTH JOHNSTONE EXP STN Lat: -17.61 Lon: 146.00 Height: 18.3 m
Data from the previous 72 hours. | See also: Recent months at South Johnstone
Date/Time
EST
Wind Sea
Height
m
Swell Vis
km
Cloud Weather Temp
°C
Press
hPa
Rain since
9am
mm
Dir  Spd
kts
Gust
kts
Height
m
Period
s
Dir
26/02:00pm SE 5 10 - - - - - - - 22.3 1018.1 0.0
26/01:30pm SE 6 10 - - - - - - - 22.4 1018.4 0.0
26/01:00pm SE 6 11 - - - - - - - 22.7 1018.7 0.0
26/12:30pm SE 5 8 - - - - - - - 23.5 1019.1 0.0
26/12:00pm SE 5 11 - - - - - - - 22.9 1019.5 0.0
26/11:30am SSE 4 7 - - - - - - - 22.9 1020.1 0.0
26/11:00am SSE 5 9 - - - - - - - 22.4 1020.3 0.0
26/10:30am ESE 3 7 - - - - - - - 21.6 1020.7 0.0
26/10:00am W 2 6 - - - - - - - 20.4 1020.7 0.0
26/09:30am W 2 5 - - - - - - - 18.8 1020.8 0.0
26/09:00am W 3 5 - - - - - - - 16.8 1020.5 0.2
26/08:30am WSW 3 5 - - - - - - - 14.7 1020.3 0.2
26/08:00am W 3 5 - - - - - - - 13.1 1020.3 0.2
26/07:30am W 2 4 - - - - - - - 11.3 1020.0 0.2
26/07:00am W 3 5 - - - - - - - 10.5 1019.8 0.2
26/06:30am W 3 5 - - - - - - - 10.5 1019.5 0.2
26/06:00am WNW 4 5 - - - - - - - 10.4 1019.2 0.2
26/05:30am W 3 5 - - - - - - - 10.4 1018.9 0.0
26/05:00am WNW 3 5 - - - - - - - 10.4 1018.7 0.0
26/04:30am W 3 5 - - - - - - - 10.6 1018.7 0.0
26/04:00am W 2 3 - - - - - - - 10.7 1018.5 0.0
26/03:30am W 1 3 - - - - - - - 10.8 1018.3 0.0
26/03:00am WNW 3 5 - - - - - - - 11.0 1018.3 0.0
26/02:30am WNW 2 5 - - - - - - - 11.4 1018.7 0.0
26/02:00am W 2 4 - - - - - - - 11.4 1018.8 0.0
26/01:30am WNW 2 5 - - - - - - - 11.4 1019.0 0.0
26/01:00am W 3 5 - - - - - - - 11.5 1019.1 0.0
26/12:30am WNW 3 4 - - - - - - - 11.7 1019.1 0.0
26/12:00am WNW 3 4 - - - - - - - 11.8 1019.2 0.0
 
Date/Time
EST
Wind Sea
Height
m
Swell Vis
km
Cloud Weather Temp
°C
Press
hPa
Rain since
9am
mm
Dir  Spd
kts
Gust
kts
Height
m
Period
s
Dir
25/11:30pm W 3 5 - - - - - - - 12.0 1019.5 0.0
25/11:00pm W 3 4 - - - - - - - 12.3 1019.5 0.0
25/10:30pm WNW 4 5 - - - - - - - 12.5 1019.7 0.0
25/10:00pm W 5 7 - - - - - - - 12.7 1019.7 0.0
25/09:30pm WNW 3 4 - - - - - - - 13.0 1019.6 0.0
25/09:00pm WNW 3 5 - - - - - - - 13.2 1019.5 0.0
25/08:30pm WNW 3 4 - - - - - - - 13.6 1019.5 0.0
25/08:00pm WNW 3 5 - - - - - - - 13.9 1019.0 0.0
25/07:30pm W 2 4 - - - - - - - 14.4 1018.7 0.0
25/07:00pm CALM 0 3 - - - - - - - 15.2 1018.2 0.0
25/06:30pm CALM 0 3 - - - - - - - 16.1 1017.8 0.0
25/06:00pm CALM 0 0 - - - - - - - 17.6 1017.4 0.0
25/05:30pm S 4 5 - - - - - - - 18.8 1017.1 0.0
25/05:00pm SSE 3 6 - - - - - - - 19.6 1016.9 0.0
25/04:30pm ESE 4 8 - - - - - - - 20.2 1016.6 0.0
25/04:00pm ESE 5 9 - - - - - - - 20.5 1016.4 0.0
25/03:30pm SE 6 10 - - - - - - - 20.8 1016.4 0.0
25/03:00pm SE 6 11 - - - - - - - 21.2 1016.2 0.0
25/02:30pm SE 6 11 - - - - - - - 21.6 1016.7 0.0
25/02:00pm ESE 7 12 - - - - - - - 21.8 1016.8 0.0
25/01:30pm SE 7 11 - - - - - - - 22.1 1017.3 0.0
25/01:00pm ENE 2 4 - - - - - - - 22.6 1017.8 0.0
25/12:30pm E 3 6 - - - - - - - 22.1 1018.2 0.0
25/12:00pm E 4 5 - - - - - - - 21.6 1018.5 0.0
25/11:30am SE 3 7 - - - - - - - 21.2 1019.0 0.0
25/11:00am SSE 3 7 - - - - - - - 20.6 1019.6 0.0
25/10:30am E 3 6 - - - - - - - 20.0 1020.0 0.0
25/10:00am SW 1 4 - - - - - - - 19.4 1020.3 0.0
25/09:30am CALM 0 0 - - - - - - - 17.6 1020.4 0.0
25/09:00am CALM 0 0 - - - - - - - 15.8 1020.1 0.2
25/08:30am W 3 5 - - - - - - - 13.2 1020.1 0.2
25/08:00am W 3 5 - - - - - - - 11.7 1019.8 0.2
25/07:30am WSW 4 6 - - - - - - - 9.8 1019.5 0.2
25/07:00am CALM 0 0 - - - - - - - 9.7 1019.1 0.2
25/06:30am W 4 7 - - - - - - - 9.4 1018.6 0.2
25/06:00am W 3 5 - - - - - - - 9.7 1018.1 0.2
25/05:30am W 3 5 - - - - - - - 9.6 1017.9 0.2
25/05:00am WNW 3 5 - - - - - - - 9.6 1017.5 0.0
25/04:30am W 4 6 - - - - - - - 9.6 1017.4 0.0
25/04:00am W 4 6 - - - - - - - 9.8 1017.4 0.0
25/03:30am W 6 9 - - - - - - - 9.8 1017.4 0.0
25/03:00am E 1 3 - - - - - - - 9.8 1017.4 0.0
25/02:30am W 5 8 - - - - - - - 10.1 1017.6 0.0
25/02:00am NW 2 5 - - - - - - - 10.3 1017.6 0.0
25/01:30am W 1 4 - - - - - - - 10.6 1017.7 0.0
25/01:00am W 3 5 - - - - - - - 11.0 1017.7 0.0
25/12:30am WNW 3 5 - - - - - - - 11.0 1017.8 0.0
25/12:00am WNW 3 5 - - - - - - - 11.2 1017.7 0.0
 
Date/Time
EST
Wind Sea
Height
m
Swell Vis
km
Cloud Weather Temp
°C
Press
hPa
Rain since
9am
mm
Dir  Spd
kts
Gust
kts
Height
m
Period
s
Dir
24/11:30pm W 4 7 - - - - - - - 11.4 1018.1 0.0
24/11:00pm W 3 6 - - - - - - - 11.7 1018.1 0.0
24/10:30pm W 2 5 - - - - - - - 12.1 1018.5 0.0
24/10:00pm W 4 7 - - - - - - - 12.4 1018.2 0.0
24/09:30pm W 3 7 - - - - - - - 12.6 1018.2 0.0
24/09:00pm WNW 4 5 - - - - - - - 12.8 1017.8 0.0
24/08:30pm W 2 5 - - - - - - - 13.2 1018.0 0.0
24/08:00pm WNW 2 4 - - - - - - - 13.6 1017.8 0.0
24/07:30pm WNW 4 6 - - - - - - - 13.8 1017.3 0.0
24/07:00pm W 3 21 - - - - - - - 14.5 1017.0 0.0
24/06:30pm CALM 0 0 - - - - - - - 15.7 1016.5 0.0
24/06:00pm CALM 0 0 - - - - - - - 16.7 1015.9 0.0
24/05:30pm CALM 0 0 - - - - - - - 17.9 1015.7 0.0
24/05:00pm SE 4 7 - - - - - - - 18.9 1015.2 0.0
24/04:30pm SE 6 10 - - - - - - - 19.7 1015.1 0.0
24/04:00pm SE 6 9 - - - - - - - 20.4 1014.7 0.0
24/03:30pm SSE 4 6 - - - - - - - 20.7 1014.5 0.0
24/03:00pm S 5 7 - - - - - - - 21.0 1014.6 0.0
24/02:30pm SE 4 7 - - - - - - - 21.1 1014.9 0.0
24/02:00pm SSE 1 4 - - - - - - - 20.9 1015.3 0.0
24/01:30pm WSW 2 5 - - - - - - - 20.4 1015.5 0.0
24/01:00pm SSW 4 6 - - - - - - - 21.0 1015.6 0.0
24/12:30pm S 4 7 - - - - - - - 20.1 1016.3 0.0
24/12:00pm WSW 3 6 - - - - - - - 19.9 1017.0 0.0
24/11:30am CALM 0 1 - - - - - - - 18.6 1017.6 0.0
24/11:00am SSE 1 3 - - - - - - - 17.7 1018.1 0.0
24/10:30am W 1 3 - - - - - - - 15.9 1018.6 0.0
24/10:00am WSW 1 3 - - - - - - - 14.7 1018.8 0.0
24/09:30am W 2 5 - - - - - - - 14.3 1018.8 0.0
24/09:00am WSW 4 7 - - - - - - - 13.7 1018.6 17.8
24/08:30am SW 3 5 - - - - - - - 13.2 1018.4 17.8
24/08:00am W 3 7 - - - - - - - 12.4 1017.6 17.6
24/07:30am SW 5 7 - - - - - - - 12.0 1017.6 17.6
24/07:00am WSW 4 6 - - - - - - - 11.7 1017.2 17.6
24/06:30am SW 4 6 - - - - - - - 12.1 1017.4 17.6
24/06:00am W 1 4 - - - - - - - 12.8 1016.8 17.6
24/05:30am WSW 1 4 - - - - - - - 13.0 1016.7 17.6
24/05:00am CALM 0 0 - - - - - - - 13.1 1016.5 17.6
24/04:30am CALM 0 0 - - - - - - - 13.3 1016.1 17.6
24/04:00am SW 2 4 - - - - - - - 13.6 1015.3 17.6
24/03:30am WSW 1 4 - - - - - - - 13.9 1015.9 17.6
24/03:00am CALM 0 0 - - - - - - - 14.2 1015.8 17.6
24/02:30am CALM 0 0 - - - - - - - 14.5 1015.5 17.6
24/02:00am SSW 1 4 - - - - - - - 14.8 1015.4 17.6
24/01:30am CALM 0 0 - - - - - - - 15.1 1015.8 17.6
24/01:00am CALM 0 0 - - - - - - - 15.2 1016.4 17.6
24/12:30am ESE 1 4 - - - - - - - 15.1 1015.9 17.6
24/12:00am CALM 0 0 - - - - - - - 15.3 1015.8 17.6
 
Date/Time
EST
Wind Sea
Height
m
Swell Vis
km
Cloud Weather Temp
°C
Press
hPa
Rain since
9am
mm
Dir  Spd
kts
Gust
kts
Height
m
Period
s
Dir
23/11:30pm CALM 0 1 - - - - - - - 15.4 1016.4 17.6
23/11:00pm CALM 0 0 - - - - - - - 15.2 1016.4 17.6
23/10:30pm CALM 0 0 - - - - - - - 15.2 1016.5 17.6
23/10:00pm CALM 0 0 - - - - - - - 15.2 1016.7 17.6
23/09:30pm CALM 0 0 - - - - - - - 15.3 1016.3 17.4
23/09:00pm SW 2 5 - - - - - - - 15.4 1016.8 16.8
23/08:30pm CALM 0 2 - - - - - - - 15.4 1016.9 15.8
23/08:00pm WSW 3 5 - - - - - - - 15.3 1016.0 15.6
23/07:30pm SSE 4 7 - - - - - - - 15.2 1014.9 15.6
23/07:00pm S 6 9 - - - - - - - 15.2 1015.2 14.8
23/06:30pm SSE 7 10 - - - - - - - 15.2 1015.0 13.8
23/06:00pm SSE 5 8 - - - - - - - 15.3 1015.3 13.0
23/05:30pm SSE 5 7 - - - - - - - 15.4 1014.7 12.0
23/05:00pm SSE 6 10 - - - - - - - 15.5 1014.6 10.4
23/04:30pm SSE 5 9 - - - - - - - 15.5 1014.1 9.2
23/04:00pm SSE 6 10 - - - - - - - 15.6 1013.8 7.6
23/03:30pm SSE 7 11 - - - - - - - 15.8 1013.7 6.6
23/03:00pm SSE 6 10 - - - - - - - 16.2 1013.5 6.0
23/02:30pm SSE 6 12 - - - - - - - 16.4 1013.9 5.4

Other formats

Comma delimited format used in spreadsheet applications
http://www.bom.gov.au/fwo/IDQ60701/IDQ60701.95292.axf

JavaScript Object Notation format (JSON) in row-major order
http://www.bom.gov.au/fwo/IDQ60701/IDQ60701.95292.json

Data quality

Most of these data are generated automatically and are frequently updated. Quality checks on data are not normally performed. It is possible for incorrect values to appear. Refer to information at About Latest Weather Observations and please check the disclaimer before using these data.